sensor_id;sensor_type;location;lat;lon;timestamp;pressure;altitude;pressure_sealevel;temperature;humidity
60974;BME280;46846;51.528;5.076;2023-02-18T00:00:38;101731.25;;;8.86;84.31
60974;BME280;46846;51.528;5.076;2023-02-18T00:03:03;101737.44;;;8.85;84.20
60974;BME280;46846;51.528;5.076;2023-02-18T00:05:29;101743.59;;;8.87;84.31
60974;BME280;46846;51.528;5.076;2023-02-18T00:07:54;101742.81;;;8.81;84.45
60974;BME280;46846;51.528;5.076;2023-02-18T00:10:20;101746.31;;;8.83;84.61
60974;BME280;46846;51.528;5.076;2023-02-18T00:12:45;101737.38;;;8.90;84.48
60974;BME280;46846;51.528;5.076;2023-02-18T00:15:10;101725.03;;;8.86;84.41
60974;BME280;46846;51.528;5.076;2023-02-18T00:17:36;101732.09;;;8.87;84.53
60974;BME280;46846;51.528;5.076;2023-02-18T00:20:02;101726.91;;;8.78;84.80
60974;BME280;46846;51.528;5.076;2023-02-18T00:22:27;101721.66;;;8.73;84.80
60974;BME280;46846;51.528;5.076;2023-02-18T00:24:52;101737.56;;;8.76;84.82
60974;BME280;46846;51.528;5.076;2023-02-18T00:27:18;101737.53;;;8.78;84.65
60974;BME280;46846;51.528;5.076;2023-02-18T00:29:43;101718.19;;;8.69;84.86
60974;BME280;46846;51.528;5.076;2023-02-18T00:32:08;101723.47;;;8.72;84.91
60974;BME280;46846;51.528;5.076;2023-02-18T00:34:34;101708.47;;;8.70;85.03
60974;BME280;46846;51.528;5.076;2023-02-18T00:36:59;101709.31;;;8.72;84.71
60974;BME280;46846;51.528;5.076;2023-02-18T00:39:24;101697.00;;;8.66;85.19
60974;BME280;46846;51.528;5.076;2023-02-18T00:41:50;101691.63;;;8.72;84.84
60974;BME280;46846;51.528;5.076;2023-02-18T00:44:15;101690.69;;;8.75;85.09
60974;BME280;46846;51.528;5.076;2023-02-18T00:46:41;101690.66;;;8.78;84.92
60974;BME280;46846;51.528;5.076;2023-02-18T00:49:06;101687.22;;;8.70;85.15
60974;BME280;46846;51.528;5.076;2023-02-18T00:51:32;101683.69;;;8.68;85.29
60974;BME280;46846;51.528;5.076;2023-02-18T00:53:57;101689.91;;;8.68;85.02
60974;BME280;46846;51.528;5.076;2023-02-18T00:56:23;101675.78;;;8.66;85.26
60974;BME280;46846;51.528;5.076;2023-02-18T00:58:48;101675.00;;;8.56;85.57
60974;BME280;46846;51.528;5.076;2023-02-18T01:01:14;101676.69;;;8.64;85.56
60974;BME280;46846;51.528;5.076;2023-02-18T01:03:41;101677.59;;;8.63;85.33
60974;BME280;46846;51.528;5.076;2023-02-18T01:06:07;101674.03;;;8.62;85.50
60974;BME280;46846;51.528;5.076;2023-02-18T01:08:33;101674.75;;;8.75;85.16
60974;BME280;46846;51.528;5.076;2023-02-18T01:10:59;101673.00;;;8.74;85.01
60974;BME280;46846;51.528;5.076;2023-02-18T01:13:25;101669.50;;;8.72;84.89
60974;BME280;46846;51.528;5.076;2023-02-18T01:15:50;101676.72;;;8.60;85.45
60974;BME280;46846;51.528;5.076;2023-02-18T01:18:16;101662.53;;;8.65;85.44
60974;BME280;46846;51.528;5.076;2023-02-18T01:20:42;101670.47;;;8.66;85.24
60974;BME280;46846;51.528;5.076;2023-02-18T01:23:08;101662.66;;;8.55;85.70
60974;BME280;46846;51.528;5.076;2023-02-18T01:25:34;101663.50;;;8.57;85.62
60974;BME280;46846;51.528;5.076;2023-02-18T01:28:00;101656.44;;;8.56;85.79
60974;BME280;46846;51.528;5.076;2023-02-18T01:30:25;101657.34;;;8.55;85.69
60974;BME280;46846;51.528;5.076;2023-02-18T01:32:50;101644.03;;;8.57;85.79
60974;BME280;46846;51.528;5.076;2023-02-18T01:35:18;101649.31;;;8.61;85.53
60974;BME280;46846;51.528;5.076;2023-02-18T01:37:44;101656.19;;;8.75;85.36
60974;BME280;46846;51.528;5.076;2023-02-18T01:40:12;101647.44;;;8.67;85.27
60974;BME280;46846;51.528;5.076;2023-02-18T01:42:38;101644.72;;;8.73;85.29
60974;BME280;46846;51.528;5.076;2023-02-18T01:47:48;101639.41;;;8.73;85.16
60974;BME280;46846;51.528;5.076;2023-02-18T01:50:13;101636.91;;;8.60;85.70
60974;BME280;46846;51.528;5.076;2023-02-18T01:52:38;101632.50;;;8.63;85.28
60974;BME280;46846;51.528;5.076;2023-02-18T01:55:04;101639.41;;;8.73;85.24
60974;BME280;46846;51.528;5.076;2023-02-18T01:57:32;101644.78;;;8.67;85.42
60974;BME280;46846;51.528;5.076;2023-02-18T02:00:09;101639.53;;;8.64;85.57
60974;BME280;46846;51.528;5.076;2023-02-18T02:02:39;101643.09;;;8.63;85.60
60974;BME280;46846;51.528;5.076;2023-02-18T02:05:07;101636.91;;;8.64;85.56
60974;BME280;46846;51.528;5.076;2023-02-18T02:07:32;101638.69;;;8.61;85.42
60974;BME280;46846;51.528;5.076;2023-02-18T02:09:58;101624.50;;;8.64;85.46
60974;BME280;46846;51.528;5.076;2023-02-18T02:37:43;101579.50;;;8.56;85.80
60974;BME280;46846;51.528;5.076;2023-02-18T02:43:14;101579.44;;;8.63;85.63
60974;BME280;46846;51.528;5.076;2023-02-18T02:46:05;101570.72;;;8.54;85.78
60974;BME280;46846;51.528;5.076;2023-02-18T02:51:49;101568.06;;;8.54;86.08
60974;BME280;46846;51.528;5.076;2023-02-18T02:54:23;101570.66;;;8.57;86.00
60974;BME280;46846;51.528;5.076;2023-02-18T02:56:49;101560.94;;;8.56;85.77
60974;BME280;46846;51.528;5.076;2023-02-18T02:59:20;101556.47;;;8.58;85.95
60974;BME280;46846;51.528;5.076;2023-02-18T03:12:43;101536.97;;;8.63;85.50
60974;BME280;46846;51.528;5.076;2023-02-18T03:17:55;101520.09;;;8.67;85.40
60974;BME280;46846;51.528;5.076;2023-02-18T03:20:26;101515.69;;;8.66;85.23
60974;BME280;46846;51.528;5.076;2023-02-18T03:22:54;101514.09;;;8.55;85.95
60974;BME280;46846;51.528;5.076;2023-02-18T03:25:22;101500.69;;;8.65;85.30
60974;BME280;46846;51.528;5.076;2023-02-18T03:27:58;101503.34;;;8.63;85.85
60974;BME280;46846;51.528;5.076;2023-02-18T03:30:29;101499.78;;;8.66;85.50
60974;BME280;46846;51.528;5.076;2023-02-18T03:32:59;101500.78;;;8.58;85.62
60974;BME280;46846;51.528;5.076;2023-02-18T03:35:26;101499.00;;;8.59;85.80
60974;BME280;46846;51.528;5.076;2023-02-18T03:38:08;101491.13;;;8.54;86.03
60974;BME280;46846;51.528;5.076;2023-02-18T03:40:37;101493.78;;;8.54;85.81
60974;BME280;46846;51.528;5.076;2023-02-18T03:43:02;101488.53;;;8.48;86.17
60974;BME280;46846;51.528;5.076;2023-02-18T03:45:28;101481.44;;;8.52;85.77
60974;BME280;46846;51.528;5.076;2023-02-18T03:47:53;101471.69;;;8.52;85.64
60974;BME280;46846;51.528;5.076;2023-02-18T03:50:18;101477.78;;;8.59;85.78
60974;BME280;46846;51.528;5.076;2023-02-18T03:52:44;101473.34;;;8.59;85.58
60974;BME280;46846;51.528;5.076;2023-02-18T03:55:09;101477.00;;;8.52;86.02
60974;BME280;46846;51.528;5.076;2023-02-18T03:57:35;101471.81;;;8.43;86.29
60974;BME280;46846;51.528;5.076;2023-02-18T04:00:00;101472.72;;;8.42;86.35
60974;BME280;46846;51.528;5.076;2023-02-18T04:02:26;101474.31;;;8.54;85.91
60974;BME280;46846;51.528;5.076;2023-02-18T04:04:51;101474.25;;;8.57;85.83
60974;BME280;46846;51.528;5.076;2023-02-18T04:07:17;101470.81;;;8.50;85.74
60974;BME280;46846;51.528;5.076;2023-02-18T04:09:42;101463.75;;;8.49;85.84
60974;BME280;46846;51.528;5.076;2023-02-18T04:12:07;101460.22;;;8.52;85.80
60974;BME280;46846;51.528;5.076;2023-02-18T04:14:33;101457.44;;;8.59;85.73
60974;BME280;46846;51.528;5.076;2023-02-18T04:16:58;101458.41;;;8.54;85.49
60974;BME280;46846;51.528;5.076;2023-02-18T04:19:23;101455.88;;;8.46;86.05
60974;BME280;46846;51.528;5.076;2023-02-18T04:21:49;101468.25;;;8.44;86.02
60974;BME280;46846;51.528;5.076;2023-02-18T04:24:14;101462.28;;;8.29;86.70
60974;BME280;46846;51.528;5.076;2023-02-18T04:26:39;101452.41;;;8.39;86.50
60974;BME280;46846;51.528;5.076;2023-02-18T04:29:05;101455.94;;;8.40;86.41
60974;BME280;46846;51.528;5.076;2023-02-18T04:31:30;101456.03;;;8.35;86.69
60974;BME280;46846;51.528;5.076;2023-02-18T04:33:55;101449.81;;;8.36;86.52
60974;BME280;46846;51.528;5.076;2023-02-18T04:36:21;101458.56;;;8.41;86.37
60974;BME280;46846;51.528;5.076;2023-02-18T04:38:46;101449.72;;;8.42;86.10
60974;BME280;46846;51.528;5.076;2023-02-18T04:41:11;101447.84;;;8.47;86.08
60974;BME280;46846;51.528;5.076;2023-02-18T04:43:37;101446.34;;;8.32;86.54
60974;BME280;46846;51.528;5.076;2023-02-18T04:46:03;101448.00;;;8.38;86.38
60974;BME280;46846;51.528;5.076;2023-02-18T04:48:29;101442.63;;;8.43;86.34
60974;BME280;46846;51.528;5.076;2023-02-18T04:50:54;101444.44;;;8.39;86.26
60974;BME280;46846;51.528;5.076;2023-02-18T04:53:19;101447.94;;;8.43;86.18
60974;BME280;46846;51.528;5.076;2023-02-18T04:55:49;101449.78;;;8.38;86.61
60974;BME280;46846;51.528;5.076;2023-02-18T04:58:16;101445.28;;;8.43;86.07
60974;BME280;46846;51.528;5.076;2023-02-18T05:00:41;101427.72;;;8.35;86.29
60974;BME280;46846;51.528;5.076;2023-02-18T05:03:06;101429.44;;;8.40;86.29
60974;BME280;46846;51.528;5.076;2023-02-18T05:05:32;101425.84;;;8.42;86.16
60974;BME280;46846;51.528;5.076;2023-02-18T05:07:57;101428.50;;;8.42;85.96
60974;BME280;46846;51.528;5.076;2023-02-18T05:10:22;101418.91;;;8.33;86.18
60974;BME280;46846;51.528;5.076;2023-02-18T05:12:48;101426.06;;;8.28;86.63
60974;BME280;46846;51.528;5.076;2023-02-18T05:15:13;101411.88;;;8.32;86.52
60974;BME280;46846;51.528;5.076;2023-02-18T05:17:39;101419.00;;;8.27;86.63
60974;BME280;46846;51.528;5.076;2023-02-18T05:20:05;101411.88;;;8.32;86.53
60974;BME280;46846;51.528;5.076;2023-02-18T05:22:31;101408.38;;;8.29;86.62
60974;BME280;46846;51.528;5.076;2023-02-18T05:24:56;101389.72;;;8.35;86.29
60974;BME280;46846;51.528;5.076;2023-02-18T05:27:21;101410.25;;;8.22;86.64
60974;BME280;46846;51.528;5.076;2023-02-18T05:29:46;101400.47;;;8.26;86.55
60974;BME280;46846;51.528;5.076;2023-02-18T05:32:12;101405.81;;;8.23;86.80
60974;BME280;46846;51.528;5.076;2023-02-18T05:34:37;101408.47;;;8.24;86.95
60974;BME280;46846;51.528;5.076;2023-02-18T05:37:03;101408.41;;;8.27;86.76
60974;BME280;46846;51.528;5.076;2023-02-18T05:39:28;101413.63;;;8.32;86.46
60974;BME280;46846;51.528;5.076;2023-02-18T05:41:53;101414.69;;;8.21;86.64
60974;BME280;46846;51.528;5.076;2023-02-18T05:44:18;101417.34;;;8.20;87.21
60974;BME280;46846;51.528;5.076;2023-02-18T05:47:05;101415.44;;;8.28;86.72
60974;BME280;46846;51.528;5.076;2023-02-18T05:49:32;101411.72;;;8.40;86.49
60974;BME280;46846;51.528;5.076;2023-02-18T05:51:58;101406.47;;;8.39;86.45
60974;BME280;46846;51.528;5.076;2023-02-18T05:54:24;101395.97;;;8.29;86.33
60974;BME280;46846;51.528;5.076;2023-02-18T05:56:50;101395.09;;;8.30;86.50
60974;BME280;46846;51.528;5.076;2023-02-18T05:59:17;101368.63;;;8.27;86.26
60974;BME280;46846;51.528;5.076;2023-02-18T06:01:43;101382.72;;;8.29;86.21
60974;BME280;46846;51.528;5.076;2023-02-18T06:04:09;101395.00;;;8.37;86.31
60974;BME280;46846;51.528;5.076;2023-02-18T06:06:34;101375.59;;;8.33;86.23
60974;BME280;46846;51.528;5.076;2023-02-18T06:09:00;101375.84;;;8.19;86.76
60974;BME280;46846;51.528;5.076;2023-02-18T06:11:25;101381.88;;;8.27;86.35
60974;BME280;46846;51.528;5.076;2023-02-18T06:13:51;101371.22;;;8.30;86.02
60974;BME280;46846;51.528;5.076;2023-02-18T06:16:16;101372.16;;;8.28;86.30
60974;BME280;46846;51.528;5.076;2023-02-18T06:18:41;101363.31;;;8.29;86.28
60974;BME280;46846;51.528;5.076;2023-02-18T06:21:07;101359.00;;;8.21;86.57
60974;BME280;46846;51.528;5.076;2023-02-18T06:23:32;101364.25;;;8.23;86.60
60974;BME280;46846;51.528;5.076;2023-02-18T06:25:57;101357.28;;;8.19;86.68
60974;BME280;46846;51.528;5.076;2023-02-18T06:28:23;101370.53;;;8.17;86.85
60974;BME280;46846;51.528;5.076;2023-02-18T06:30:48;101374.94;;;8.20;86.83
60974;BME280;46846;51.528;5.076;2023-02-18T06:33:14;101382.03;;;8.18;86.92
60974;BME280;46846;51.528;5.076;2023-02-18T06:35:40;101372.28;;;8.20;86.61
60974;BME280;46846;51.528;5.076;2023-02-18T06:38:05;101373.34;;;8.08;86.99
60974;BME280;46846;51.528;5.076;2023-02-18T06:40:31;101380.28;;;8.17;86.81
60974;BME280;46846;51.528;5.076;2023-02-18T06:42:56;101396.22;;;8.14;86.94
60974;BME280;46846;51.528;5.076;2023-02-18T06:45:21;101387.28;;;8.21;86.67
60974;BME280;46846;51.528;5.076;2023-02-18T06:47:47;101369.69;;;8.17;86.41
60974;BME280;46846;51.528;5.076;2023-02-18T06:50:13;101382.91;;;8.18;86.54
60974;BME280;46846;51.528;5.076;2023-02-18T06:52:38;101370.69;;;8.10;86.92
60974;BME280;46846;51.528;5.076;2023-02-18T06:55:04;101376.91;;;8.07;86.91
60974;BME280;46846;51.528;5.076;2023-02-18T06:57:30;101374.13;;;8.15;86.34
60974;BME280;46846;51.528;5.076;2023-02-18T06:59:56;101385.66;;;8.12;86.69
60974;BME280;46846;51.528;5.076;2023-02-18T07:02:21;101380.38;;;8.11;86.48
60974;BME280;46846;51.528;5.076;2023-02-18T07:04:46;101374.19;;;8.12;86.53
60974;BME280;46846;51.528;5.076;2023-02-18T07:07:12;101376.00;;;8.10;86.74
60974;BME280;46846;51.528;5.076;2023-02-18T07:09:37;101378.56;;;8.13;86.61
60974;BME280;46846;51.528;5.076;2023-02-18T07:12:02;101369.78;;;8.11;86.33
60974;BME280;46846;51.528;5.076;2023-02-18T07:14:28;101381.31;;;8.06;86.66
60974;BME280;46846;51.528;5.076;2023-02-18T07:16:53;101378.72;;;8.05;86.73
60974;BME280;46846;51.528;5.076;2023-02-18T07:19:18;101376.00;;;8.08;86.53
60974;BME280;46846;51.528;5.076;2023-02-18T07:21:44;101384.00;;;8.05;86.66
60974;BME280;46846;51.528;5.076;2023-02-18T07:24:09;101383.03;;;8.09;86.53
60974;BME280;46846;51.528;5.076;2023-02-18T07:26:34;101387.50;;;8.07;86.62
60974;BME280;46846;51.528;5.076;2023-02-18T07:28:59;101393.63;;;8.11;86.26
60974;BME280;46846;51.528;5.076;2023-02-18T07:31:25;101393.56;;;8.14;86.29
60974;BME280;46846;51.528;5.076;2023-02-18T07:33:50;101408.69;;;8.09;86.21
60974;BME280;46846;51.528;5.076;2023-02-18T07:36:15;101423.59;;;8.16;86.04
60974;BME280;46846;51.528;5.076;2023-02-18T07:38:41;101402.41;;;8.14;86.13
60974;BME280;46846;51.528;5.076;2023-02-18T07:41:06;101413.94;;;8.10;86.10
60974;BME280;46846;51.528;5.076;2023-02-18T07:43:31;101418.41;;;8.08;86.13
60974;BME280;46846;51.528;5.076;2023-02-18T07:45:56;101411.22;;;8.16;85.76
60974;BME280;46846;51.528;5.076;2023-02-18T07:48:21;101424.47;;;8.15;85.67
60974;BME280;46846;51.528;5.076;2023-02-18T07:50:47;101419.25;;;8.10;85.83
60974;BME280;46846;51.528;5.076;2023-02-18T07:53:13;101419.25;;;8.10;85.86
60974;BME280;46846;51.528;5.076;2023-02-18T07:55:38;101416.59;;;8.10;85.72
60974;BME280;46846;51.528;5.076;2023-02-18T07:58:20;101409.63;;;8.03;85.92
60974;BME280;46846;51.528;5.076;2023-02-18T08:00:52;101400.94;;;7.93;86.35
60974;BME280;46846;51.528;5.076;2023-02-18T08:03:19;101412.44;;;7.93;86.34
60974;BME280;46846;51.528;5.076;2023-02-18T08:05:46;101415.06;;;7.95;86.24
60974;BME280;46846;51.528;5.076;2023-02-18T08:08:15;101410.72;;;7.89;86.34
60974;BME280;46846;51.528;5.076;2023-02-18T08:10:41;101400.97;;;7.91;86.14
60974;BME280;46846;51.528;5.076;2023-02-18T08:13:07;101401.06;;;7.87;86.35
60974;BME280;46846;51.528;5.076;2023-02-18T08:15:32;101392.19;;;7.88;86.30
60974;BME280;46846;51.528;5.076;2023-02-18T08:17:57;101396.59;;;7.90;85.87
60974;BME280;46846;51.528;5.076;2023-02-18T08:20:22;101397.44;;;7.91;86.33
60974;BME280;46846;51.528;5.076;2023-02-18T08:22:48;101406.19;;;7.98;86.11
60974;BME280;46846;51.528;5.076;2023-02-18T08:25:13;101393.81;;;7.97;85.83
60974;BME280;46846;51.528;5.076;2023-02-18T08:27:38;101400.94;;;7.94;86.26
60974;BME280;46846;51.528;5.076;2023-02-18T08:30:04;101399.25;;;7.87;86.34
60974;BME280;46846;51.528;5.076;2023-02-18T08:32:29;101397.47;;;7.89;86.18
60974;BME280;46846;51.528;5.076;2023-02-18T08:34:54;101408.03;;;7.92;86.15
60974;BME280;46846;51.528;5.076;2023-02-18T08:37:20;101405.38;;;7.94;85.68
60974;BME280;46846;51.528;5.076;2023-02-18T08:39:45;101400.97;;;7.91;86.12
60974;BME280;46846;51.528;5.076;2023-02-18T08:42:11;101395.69;;;7.90;85.91
60974;BME280;46846;51.528;5.076;2023-02-18T08:44:36;101395.78;;;7.85;86.12
60974;BME280;46846;51.528;5.076;2023-02-18T08:47:01;101395.72;;;7.88;85.96
60974;BME280;46846;51.528;5.076;2023-02-18T08:49:26;101391.28;;;7.90;86.00
60974;BME280;46846;51.528;5.076;2023-02-18T08:51:52;101408.03;;;7.91;85.98
60974;BME280;46846;51.528;5.076;2023-02-18T08:54:17;101403.59;;;7.93;85.89
60974;BME280;46846;51.528;5.076;2023-02-18T08:56:43;101393.09;;;7.87;86.19
60974;BME280;46846;51.528;5.076;2023-02-18T08:59:08;101401.91;;;7.89;85.59
60974;BME280;46846;51.528;5.076;2023-02-18T09:01:33;101401.00;;;7.90;85.33
60974;BME280;46846;51.528;5.076;2023-02-18T09:03:58;101406.19;;;7.98;85.58
60974;BME280;46846;51.528;5.076;2023-02-18T09:06:24;101408.13;;;7.86;85.84
60974;BME280;46846;51.528;5.076;2023-02-18T09:08:49;101396.59;;;7.89;85.46
60974;BME280;46846;51.528;5.076;2023-02-18T09:11:15;101404.47;;;7.93;85.57
60974;BME280;46846;51.528;5.076;2023-02-18T09:13:40;101416.88;;;7.91;85.51
60974;BME280;46846;51.528;5.076;2023-02-18T09:16:06;101406.38;;;7.85;85.60
60974;BME280;46846;51.528;5.076;2023-02-18T09:18:32;101419.56;;;7.88;85.55
60974;BME280;46846;51.528;5.076;2023-02-18T09:21:00;101424.91;;;7.84;85.50
60974;BME280;46846;51.528;5.076;2023-02-18T09:23:26;101415.22;;;7.83;85.45
60974;BME280;46846;51.528;5.076;2023-02-18T09:25:51;101411.72;;;7.80;85.83
60974;BME280;46846;51.528;5.076;2023-02-18T09:28:17;101430.16;;;7.88;85.60
60974;BME280;46846;51.528;5.076;2023-02-18T09:30:42;101431.06;;;7.87;85.53
60974;BME280;46846;51.528;5.076;2023-02-18T09:33:07;101439.84;;;7.92;85.50
60974;BME280;46846;51.528;5.076;2023-02-18T09:35:32;101426.66;;;7.86;85.66
60974;BME280;46846;51.528;5.076;2023-02-18T09:38:02;101433.69;;;7.89;85.04
60974;BME280;46846;51.528;5.076;2023-02-18T09:40:28;101429.31;;;7.85;85.55
60974;BME280;46846;51.528;5.076;2023-02-18T09:42:57;101429.25;;;7.91;85.23
60974;BME280;46846;51.528;5.076;2023-02-18T09:45:25;101428.34;;;7.92;85.15
60974;BME280;46846;51.528;5.076;2023-02-18T09:47:51;101443.34;;;7.93;85.08
60974;BME280;46846;51.528;5.076;2023-02-18T09:52:48;101428.47;;;7.84;85.84
60974;BME280;46846;51.528;5.076;2023-02-18T09:57:55;101436.34;;;7.90;85.41
60974;BME280;46846;51.528;5.076;2023-02-18T10:00:29;101437.16;;;7.94;84.81
60974;BME280;46846;51.528;5.076;2023-02-18T10:03:17;101432.94;;;7.80;85.81
60974;BME280;46846;51.528;5.076;2023-02-18T10:05:44;101441.66;;;7.89;85.36
60974;BME280;46846;51.528;5.076;2023-02-18T10:08:30;101445.97;;;7.96;84.96
60974;BME280;46846;51.528;5.076;2023-02-18T10:10:57;101439.91;;;7.85;85.72
60974;BME280;46846;51.528;5.076;2023-02-18T10:13:23;101430.97;;;7.93;84.74
60974;BME280;46846;51.528;5.076;2023-02-18T10:15:49;101441.66;;;7.89;85.28
60974;BME280;46846;51.528;5.076;2023-02-18T10:18:21;101441.66;;;7.89;85.43
60974;BME280;46846;51.528;5.076;2023-02-18T10:20:49;101442.50;;;7.91;85.00
60974;BME280;46846;51.528;5.076;2023-02-18T10:23:15;101447.81;;;7.89;85.08
60974;BME280;46846;51.528;5.076;2023-02-18T10:25:43;101461.88;;;7.96;84.75
60974;BME280;46846;51.528;5.076;2023-02-18T10:28:09;101458.38;;;7.94;84.87
60974;BME280;46846;51.528;5.076;2023-02-18T10:30:37;101460.94;;;7.99;84.92
60974;BME280;46846;51.528;5.076;2023-02-18T10:33:16;101450.41;;;7.94;85.03
60974;BME280;46846;51.528;5.076;2023-02-18T10:41:14;101450.38;;;7.97;84.94
60974;BME280;46846;51.528;5.076;2023-02-18T10:46:10;101464.38;;;8.05;84.59
60974;BME280;46846;51.528;5.076;2023-02-18T10:51:49;101454.75;;;7.98;85.07
60974;BME280;46846;51.528;5.076;2023-02-18T10:53:55;101468.75;;;8.10;84.60
60974;BME280;46846;51.528;5.076;2023-02-18T10:56:40;101485.59;;;8.04;84.63
60974;BME280;46846;51.528;5.076;2023-02-18T11:01:52;101480.22;;;8.10;84.53
60974;BME280;46846;51.528;5.076;2023-02-18T11:04:19;101474.13;;;8.05;84.66
60974;BME280;46846;51.528;5.076;2023-02-18T11:06:46;101483.06;;;7.98;84.84
60974;BME280;46846;51.528;5.076;2023-02-18T11:09:22;101475.88;;;8.04;84.72
60974;BME280;46846;51.528;5.076;2023-02-18T11:11:49;101483.09;;;7.93;85.38
60974;BME280;46846;51.528;5.076;2023-02-18T11:14:15;101481.25;;;7.98;85.06
60974;BME280;46846;51.528;5.076;2023-02-18T11:16:57;101475.00;;;8.05;85.00
60974;BME280;46846;51.528;5.076;2023-02-18T11:24:41;101485.59;;;8.05;84.69
60974;BME280;46846;51.528;5.076;2023-02-18T11:27:15;101489.06;;;8.09;84.59
60974;BME280;46846;51.528;5.076;2023-02-18T11:29:42;101482.03;;;8.06;85.01
60974;BME280;46846;51.528;5.076;2023-02-18T11:32:09;101476.72;;;8.10;84.53
60974;BME280;46846;51.528;5.076;2023-02-18T11:34:35;101476.72;;;8.10;84.74
60974;BME280;46846;51.528;5.076;2023-02-18T11:37:34;101466.06;;;8.11;84.59
60974;BME280;46846;51.528;5.076;2023-02-18T11:39:53;101482.78;;;8.16;84.66
60974;BME280;46846;51.528;5.076;2023-02-18T11:42:20;101465.28;;;8.04;85.05
60974;BME280;46846;51.528;5.076;2023-02-18T11:44:48;101469.59;;;8.12;84.89
60974;BME280;46846;51.528;5.076;2023-02-18T11:49:42;101483.69;;;8.17;84.81
60974;BME280;46846;51.528;5.076;2023-02-18T11:52:22;101478.34;;;8.18;84.66
60974;BME280;46846;51.528;5.076;2023-02-18T11:55:06;101468.56;;;8.22;84.44
60974;BME280;46846;51.528;5.076;2023-02-18T11:57:38;101473.00;;;8.21;84.74
60974;BME280;46846;51.528;5.076;2023-02-18T12:00:14;101469.47;;;8.21;84.72
60974;BME280;46846;51.528;5.076;2023-02-18T12:02:40;101459.84;;;8.14;85.03
60974;BME280;46846;51.528;5.076;2023-02-18T12:05:13;101456.28;;;8.15;85.02
60974;BME280;46846;51.528;5.076;2023-02-18T12:10:10;101465.81;;;8.28;84.58
60974;BME280;46846;51.528;5.076;2023-02-18T12:12:45;101464.13;;;8.24;84.90
60974;BME280;46846;51.528;5.076;2023-02-18T12:15:20;101464.91;;;8.31;84.38
60974;BME280;46846;51.528;5.076;2023-02-18T12:25:43;101454.31;;;8.29;84.81
60974;BME280;46846;51.528;5.076;2023-02-18T12:31:04;101448.06;;;8.35;84.46
60974;BME280;46846;51.528;5.076;2023-02-18T12:41:14;101448.84;;;8.40;84.77
60974;BME280;46846;51.528;5.076;2023-02-18T12:46:40;101447.84;;;8.49;84.41
60974;BME280;46846;51.528;5.076;2023-02-18T12:56:53;101451.34;;;8.54;84.56
60974;BME280;46846;51.528;5.076;2023-02-18T12:59:32;101441.63;;;8.50;84.52
60974;BME280;46846;51.528;5.076;2023-02-18T13:04:30;101455.06;;;8.39;85.00
60974;BME280;46846;51.528;5.076;2023-02-18T13:09:31;101447.09;;;8.41;85.18
60974;BME280;46846;51.528;5.076;2023-02-18T13:12:16;101451.41;;;8.46;84.76
60974;BME280;46846;51.528;5.076;2023-02-18T13:14:57;101465.53;;;8.52;84.78
60974;BME280;46846;51.528;5.076;2023-02-18T13:17:24;101450.50;;;8.47;84.87
60974;BME280;46846;51.528;5.076;2023-02-18T13:19:56;101460.34;;;8.42;85.09
60974;BME280;46846;51.528;5.076;2023-02-18T13:22:23;101448.75;;;8.48;84.63
60974;BME280;46846;51.528;5.076;2023-02-18T13:24:50;101460.22;;;8.52;84.93
60974;BME280;46846;51.528;5.076;2023-02-18T13:27:32;101459.28;;;8.54;84.78
60974;BME280;46846;51.528;5.076;2023-02-18T13:32:46;101431.88;;;8.54;84.95
60974;BME280;46846;51.528;5.076;2023-02-18T13:40:07;101445.91;;;8.60;84.99
60974;BME280;46846;51.528;5.076;2023-02-18T13:42:38;101453.00;;;8.60;84.97
60974;BME280;46846;51.528;5.076;2023-02-18T13:45:04;101444.25;;;8.55;85.18
60974;BME280;46846;51.528;5.076;2023-02-18T13:47:39;101445.09;;;8.57;85.21
60974;BME280;46846;51.528;5.076;2023-02-18T13:52:46;101451.09;;;8.68;84.78
60974;BME280;46846;51.528;5.076;2023-02-18T13:55:21;101444.81;;;8.74;84.71
60974;BME280;46846;51.528;5.076;2023-02-18T13:57:48;101451.88;;;8.75;84.62
60974;BME280;46846;51.528;5.076;2023-02-18T14:00:16;101444.97;;;8.65;85.03
60974;BME280;46846;51.528;5.076;2023-02-18T14:02:56;101444.78;;;8.77;84.72
60974;BME280;46846;51.528;5.076;2023-02-18T14:05:22;101447.47;;;8.74;84.70
60974;BME280;46846;51.528;5.076;2023-02-18T14:07:50;101439.56;;;8.72;84.75
60974;BME280;46846;51.528;5.076;2023-02-18T14:17:42;101437.56;;;8.85;84.65
60974;BME280;46846;51.528;5.076;2023-02-18T14:22:43;101443.72;;;8.86;83.98
60974;BME280;46846;51.528;5.076;2023-02-18T14:27:38;101442.84;;;8.85;84.64
60974;BME280;46846;51.528;5.076;2023-02-18T14:30:05;101445.53;;;8.84;84.75
60974;BME280;46846;51.528;5.076;2023-02-18T14:32:31;101444.72;;;8.79;85.03
60974;BME280;46846;51.528;5.076;2023-02-18T14:37:55;101449.28;;;8.70;85.54
60974;BME280;46846;51.528;5.076;2023-02-18T14:43:03;101452.63;;;8.83;84.88
60974;BME280;46846;51.528;5.076;2023-02-18T14:45:40;101446.34;;;8.87;84.69
60974;BME280;46846;51.528;5.076;2023-02-18T14:50:46;101445.63;;;8.79;85.15
60974;BME280;46846;51.528;5.076;2023-02-18T14:53:13;101449.91;;;8.86;85.17
60974;BME280;46846;51.528;5.076;2023-02-18T14:55:43;101446.34;;;8.87;84.77
60974;BME280;46846;51.528;5.076;2023-02-18T14:58:23;101440.16;;;8.87;84.88
60974;BME280;46846;51.528;5.076;2023-02-18T15:00:50;101446.53;;;8.77;85.34
60974;BME280;46846;51.528;5.076;2023-02-18T15:03:17;101445.47;;;8.87;85.04
60974;BME280;46846;51.528;5.076;2023-02-18T15:05:45;101442.75;;;8.92;84.80
60974;BME280;46846;51.528;5.076;2023-02-18T15:08:18;101432.81;;;9.01;84.48
60974;BME280;46846;51.528;5.076;2023-02-18T15:10:48;101438.28;;;8.94;84.58
60974;BME280;46846;51.528;5.076;2023-02-18T15:15:39;101444.53;;;8.89;84.96
60974;BME280;46846;51.528;5.076;2023-02-18T15:18:10;101447.25;;;8.86;85.01
60974;BME280;46846;51.528;5.076;2023-02-18T15:20:40;101453.31;;;8.93;84.93
60974;BME280;46846;51.528;5.076;2023-02-18T15:23:05;101448.91;;;8.92;84.99
60974;BME280;46846;51.528;5.076;2023-02-18T15:25:30;101440.75;;;9.03;84.57